createdAt,value
2019-02-05T00:00:37.315Z,78.90
2019-02-05T00:03:11.242Z,78.84
2019-02-05T00:05:39.896Z,79.23
2019-02-05T00:08:08.527Z,78.84
2019-02-05T00:10:37.079Z,79.00
2019-02-05T00:13:05.679Z,78.92
2019-02-05T00:15:34.431Z,78.71
2019-02-05T00:18:03.070Z,78.88
2019-02-05T00:20:31.563Z,79.01
2019-02-05T00:23:00.030Z,79.31
2019-02-05T00:25:28.529Z,79.02
2019-02-05T00:27:56.993Z,79.23
2019-02-05T00:30:25.936Z,79.26
2019-02-05T00:32:54.397Z,79.31
2019-02-05T00:35:22.920Z,79.18
2019-02-05T00:37:51.450Z,79.45
2019-02-05T00:40:20.100Z,79.36
2019-02-05T00:42:48.572Z,79.48
2019-02-05T00:45:20.750Z,79.33
2019-02-05T00:47:49.378Z,79.36
2019-02-05T00:50:19.544Z,79.30
2019-02-05T00:52:48.008Z,79.23
2019-02-05T00:55:19.221Z,79.21
2019-02-05T00:57:48.044Z,79.08
2019-02-05T01:00:25.861Z,79.19
2019-02-05T01:02:54.692Z,79.02
2019-02-05T01:05:23.419Z,79.30
2019-02-05T01:07:52.211Z,79.39
2019-02-05T01:10:22.122Z,79.43
2019-02-05T01:12:51.637Z,79.12
2019-02-05T01:15:22.466Z,79.10
2019-02-05T01:17:51.671Z,78.68
2019-02-05T01:20:21.580Z,78.91
2019-02-05T01:22:50.880Z,78.59
2019-02-05T01:25:20.449Z,78.70
2019-02-05T01:27:49.443Z,78.17
2019-02-05T01:30:23.471Z,78.49
2019-02-05T01:32:52.490Z,78.51
2019-02-05T01:35:21.583Z,78.17
2019-02-05T01:37:50.127Z,78.24
2019-02-05T01:40:21.289Z,78.56
2019-02-05T01:42:49.755Z,78.22
2019-02-05T01:45:19.870Z,78.13
2019-02-05T01:47:48.634Z,77.89
2019-02-05T01:50:22.404Z,77.96
2019-02-05T01:52:50.950Z,78.09
2019-02-05T01:55:19.882Z,77.91
2019-02-05T01:57:48.528Z,77.51
2019-02-05T02:00:25.616Z,77.45
2019-02-05T02:02:54.169Z,77.80
2019-02-05T02:05:22.778Z,77.63
2019-02-05T02:07:51.404Z,77.40
2019-02-05T02:10:23.057Z,77.59
2019-02-05T02:12:51.983Z,77.20
2019-02-05T02:15:20.533Z,77.13
2019-02-05T02:17:49.289Z,77.72
2019-02-05T02:20:20.159Z,77.41
2019-02-05T02:22:48.977Z,77.35
2019-02-05T02:25:18.066Z,77.12
2019-02-05T02:27:47.307Z,77.17
2019-02-05T02:30:25.006Z,77.75
2019-02-05T02:32:53.492Z,77.26
2019-02-05T02:35:21.960Z,77.19
2019-02-05T02:37:50.924Z,77.28
2019-02-05T02:40:19.377Z,76.81
2019-02-05T02:42:47.935Z,76.94
2019-02-05T02:45:16.684Z,77.08
2019-02-05T02:47:45.618Z,76.40
2019-02-05T02:50:21.767Z,76.66
2019-02-05T02:52:51.180Z,76.91
2019-02-05T02:55:19.900Z,76.96
2019-02-05T02:57:48.379Z,76.66
2019-02-05T03:00:39.027Z,76.46
2019-02-05T03:03:07.887Z,76.87
2019-02-05T03:05:36.414Z,76.91
2019-02-05T03:08:04.965Z,76.85
2019-02-05T03:10:33.422Z,76.72
2019-02-05T03:13:01.910Z,76.97
2019-02-05T03:15:30.353Z,76.59
2019-02-05T03:17:58.827Z,76.49
2019-02-05T03:20:27.367Z,76.94
2019-02-05T03:22:56.196Z,76.70
2019-02-05T03:25:26.277Z,75.86
2019-02-05T03:27:55.208Z,76.48
2019-02-05T03:30:25.615Z,76.28
2019-02-05T03:32:55.920Z,76.19
2019-02-05T03:35:24.617Z,75.87
2019-02-05T03:37:53.276Z,76.07
2019-02-05T03:40:30.602Z,76.45
2019-02-05T03:42:59.414Z,76.24
2019-02-05T03:45:29.484Z,76.35
2019-02-05T03:48:02.267Z,76.65
2019-02-05T03:50:33.712Z,76.62
2019-02-05T03:53:23.000Z,76.71
2019-02-05T03:56:09.388Z,76.29
2019-02-05T03:58:43.514Z,76.23
2019-02-05T04:01:20.727Z,75.70
2019-02-05T04:04:11.680Z,76.12
2019-02-05T04:06:48.762Z,75.84
2019-02-05T04:09:26.331Z,76.28
2019-02-05T04:12:15.912Z,75.73
2019-02-05T04:14:47.525Z,76.18
2019-02-05T04:17:19.046Z,76.08
2019-02-05T04:19:59.154Z,75.87
2019-02-05T04:22:33.432Z,76.01
2019-02-05T04:25:21.279Z,76.10
2019-02-05T04:28:01.783Z,76.37
2019-02-05T04:30:51.463Z,75.68
2019-02-05T04:33:42.348Z,75.78
2019-02-05T04:36:19.639Z,75.42
2019-02-05T04:39:12.542Z,76.06
2019-02-05T04:41:47.012Z,76.82
2019-02-05T04:44:30.822Z,77.91
2019-02-05T04:47:05.041Z,78.88
2019-02-05T04:49:51.626Z,79.27
2019-02-05T04:52:55.304Z,79.77
2019-02-05T04:55:32.287Z,80.03
2019-02-05T04:58:06.510Z,80.32
2019-02-05T05:00:56.189Z,80.84
2019-02-05T05:03:45.994Z,81.26
2019-02-05T05:06:46.593Z,81.28
2019-02-05T05:09:36.017Z,81.48
2019-02-05T05:12:04.653Z,81.55
2019-02-05T05:14:33.145Z,81.56
2019-02-05T05:17:01.991Z,81.72
2019-02-05T05:19:30.489Z,81.77
2019-02-05T05:21:59.292Z,81.58
2019-02-05T05:24:27.777Z,81.25
2019-02-05T05:26:56.418Z,81.20
2019-02-05T05:29:25.151Z,81.21
2019-02-05T05:31:53.870Z,81.17
2019-02-05T05:34:22.533Z,81.26
2019-02-05T05:36:49.887Z,81.02
2019-02-05T05:39:19.011Z,80.70
2019-02-05T05:41:47.675Z,80.46
2019-02-05T05:44:16.180Z,80.36
2019-02-05T05:46:44.637Z,80.29
2019-02-05T05:49:13.133Z,80.46
2019-02-05T05:51:41.972Z,80.26
2019-02-05T05:54:10.462Z,79.95
2019-02-05T05:56:38.921Z,79.82
2019-02-05T05:59:07.623Z,79.74
2019-02-05T06:01:36.073Z,79.72
2019-02-05T06:04:05.408Z,79.09
2019-02-05T06:06:33.977Z,79.46
2019-02-05T06:09:04.644Z,79.28
2019-02-05T06:11:33.266Z,79.47
2019-02-05T06:14:01.744Z,79.33
2019-02-05T06:16:30.247Z,78.80
2019-02-05T06:18:58.737Z,78.62
2019-02-05T06:21:27.210Z,78.73
2019-02-05T06:23:55.936Z,78.44
2019-02-05T06:26:24.481Z,78.51
2019-02-05T06:28:52.994Z,78.35
2019-02-05T06:31:21.465Z,78.37
2019-02-05T06:33:49.946Z,78.09
2019-02-05T06:36:18.406Z,78.11
2019-02-05T06:38:46.889Z,78.03
2019-02-05T06:41:15.353Z,78.22
2019-02-05T06:43:43.836Z,78.10
2019-02-05T06:46:12.287Z,77.58
2019-02-05T06:48:40.774Z,78.15
2019-02-05T06:51:09.245Z,78.21
2019-02-05T06:53:37.723Z,77.71
2019-02-05T06:56:06.361Z,78.20
2019-02-05T06:58:45.734Z,78.23
2019-02-05T07:01:05.382Z,78.30
2019-02-05T07:03:33.873Z,78.10
2019-02-05T07:06:02.337Z,78.46
2019-02-05T07:08:30.803Z,78.02
2019-02-05T07:10:59.282Z,78.06
2019-02-05T07:13:27.748Z,78.20
2019-02-05T07:15:56.725Z,78.27
2019-02-05T07:18:25.188Z,78.03
2019-02-05T07:20:53.671Z,77.97
2019-02-05T07:23:22.138Z,77.55
2019-02-05T07:25:50.623Z,77.52
2019-02-05T07:28:19.086Z,77.79
2019-02-05T07:30:47.579Z,77.86
2019-02-05T07:33:16.406Z,77.77
2019-02-05T07:35:44.905Z,77.51
2019-02-05T07:38:13.368Z,77.73
2019-02-05T07:40:41.841Z,77.82
2019-02-05T07:43:10.296Z,77.59
2019-02-05T07:45:38.780Z,77.69
2019-02-05T07:48:07.312Z,77.77
2019-02-05T07:50:35.807Z,78.02
2019-02-05T07:53:05.175Z,78.00
2019-02-05T07:55:33.667Z,77.82
2019-02-05T07:58:02.137Z,77.66
2019-02-05T08:00:31.166Z,78.02
2019-02-05T08:02:59.702Z,78.03
2019-02-05T08:05:30.623Z,77.77
2019-02-05T08:07:59.326Z,77.72
2019-02-05T08:10:28.638Z,77.74
2019-02-05T08:12:57.091Z,78.04
2019-02-05T08:15:30.532Z,77.75
2019-02-05T08:17:58.986Z,77.66
2019-02-05T08:20:27.642Z,77.73
2019-02-05T08:22:56.274Z,77.51
2019-02-05T08:25:24.753Z,77.61
2019-02-05T08:27:53.581Z,77.57
2019-02-05T08:30:28.123Z,77.93
2019-02-05T08:32:56.587Z,77.41
2019-02-05T08:35:25.065Z,77.71
2019-02-05T08:37:53.554Z,77.53
2019-02-05T08:40:23.365Z,77.16
2019-02-05T08:42:51.897Z,77.13
2019-02-05T08:45:23.668Z,76.81
2019-02-05T08:47:52.140Z,77.18
2019-02-05T08:50:23.348Z,77.19
2019-02-05T08:52:51.918Z,76.97
2019-02-05T08:55:21.644Z,76.26
2019-02-05T08:57:58.379Z,75.73
2019-02-05T09:00:32.443Z,76.84
2019-02-05T09:03:01.251Z,76.60
2019-02-05T09:05:29.716Z,76.11
2019-02-05T09:07:58.283Z,76.27
2019-02-05T09:10:32.095Z,75.82
2019-02-05T09:13:00.858Z,76.43
2019-02-05T09:15:29.935Z,75.89
2019-02-05T09:17:58.992Z,75.82
2019-02-05T09:20:27.454Z,76.28
2019-02-05T09:22:56.384Z,75.70
2019-02-05T09:25:24.939Z,76.22
2019-02-05T09:27:53.469Z,76.57
2019-02-05T09:30:24.670Z,76.80
2019-02-05T09:32:55.988Z,76.60
2019-02-05T09:35:24.445Z,76.35
2019-02-05T09:37:52.926Z,76.76
2019-02-05T09:40:27.062Z,76.58
2019-02-05T09:42:55.714Z,76.32
2019-02-05T09:45:25.005Z,76.51
2019-02-05T09:47:53.813Z,76.16
2019-02-05T09:50:22.527Z,76.58
2019-02-05T09:52:51.259Z,75.93
2019-02-05T09:55:21.266Z,75.96
2019-02-05T09:57:49.894Z,76.21
2019-02-05T10:00:30.201Z,76.59
2019-02-05T10:02:59.024Z,76.61
2019-02-05T10:05:32.923Z,76.53
2019-02-05T10:08:01.412Z,76.45
2019-02-05T10:10:30.028Z,76.24
2019-02-05T10:12:58.705Z,76.66
2019-02-05T10:15:30.031Z,76.72
2019-02-05T10:17:58.897Z,76.64
2019-02-05T10:20:27.703Z,76.36
2019-02-05T10:22:57.836Z,76.40
2019-02-05T10:25:26.490Z,77.07
2019-02-05T10:27:55.044Z,76.86
2019-02-05T10:30:29.337Z,76.92
2019-02-05T10:32:58.010Z,76.93
2019-02-05T10:35:26.559Z,77.17
2019-02-05T10:37:55.121Z,76.50
2019-02-05T10:40:25.093Z,76.89
2019-02-05T10:42:53.850Z,76.63
2019-02-05T10:45:26.869Z,76.95
2019-02-05T10:47:56.976Z,76.67
2019-02-05T10:50:25.886Z,76.20
2019-02-05T10:52:54.430Z,76.46
2019-02-05T10:55:23.629Z,77.11
2019-02-05T10:57:54.025Z,77.04
2019-02-05T11:00:26.126Z,76.55
2019-02-05T11:02:55.729Z,77.12
2019-02-05T11:05:26.616Z,77.32
2019-02-05T11:07:55.208Z,77.33
2019-02-05T11:10:23.668Z,77.05
2019-02-05T11:12:52.321Z,77.15
2019-02-05T11:15:25.865Z,77.55
2019-02-05T11:17:54.350Z,77.38
2019-02-05T11:20:24.864Z,77.80
2019-02-05T11:22:53.515Z,77.58
2019-02-05T11:25:22.324Z,77.68
2019-02-05T11:27:50.959Z,77.56
2019-02-05T11:30:22.134Z,77.37
2019-02-05T11:32:52.853Z,77.74
2019-02-05T11:35:20.821Z,77.41
2019-02-05T11:37:50.172Z,77.86
2019-02-05T11:40:22.020Z,77.74
2019-02-05T11:42:50.519Z,77.81
2019-02-05T11:45:20.091Z,77.70
2019-02-05T11:47:49.627Z,77.62
2019-02-05T11:50:19.465Z,77.85
2019-02-05T11:52:48.139Z,78.15
2019-02-05T11:55:22.250Z,78.16
2019-02-05T11:57:50.795Z,78.29
2019-02-05T12:00:40.802Z,77.79
2019-02-05T12:03:10.531Z,78.31
2019-02-05T12:05:39.355Z,77.77
2019-02-05T12:08:08.271Z,78.38
2019-02-05T12:10:36.743Z,78.35
2019-02-05T12:13:05.408Z,78.33
2019-02-05T12:15:34.060Z,78.19
2019-02-05T12:18:03.432Z,78.32
2019-02-05T12:20:31.903Z,78.73
2019-02-05T12:23:00.913Z,78.39
2019-02-05T12:25:29.389Z,78.23
2019-02-05T12:27:57.873Z,78.61
2019-02-05T12:30:43.906Z,78.51
2019-02-05T12:33:02.348Z,78.78
2019-02-05T12:35:30.889Z,78.49
2019-02-05T12:37:59.852Z,78.64
2019-02-05T12:40:28.469Z,78.48
2019-02-05T12:42:57.093Z,78.58
2019-02-05T12:45:36.306Z,79.02
2019-02-05T12:48:05.622Z,79.04
2019-02-05T12:50:42.095Z,79.21
2019-02-05T12:53:10.660Z,79.16
2019-02-05T12:55:39.253Z,78.80
2019-02-05T12:58:08.108Z,78.76
2019-02-05T13:00:39.634Z,78.64
2019-02-05T13:03:09.065Z,78.35
2019-02-05T13:05:38.173Z,78.53
2019-02-05T13:08:07.201Z,78.27
2019-02-05T13:10:38.340Z,78.87
2019-02-05T13:13:07.868Z,78.74
2019-02-05T13:15:36.572Z,78.56
2019-02-05T13:18:06.769Z,78.95
2019-02-05T13:20:35.478Z,78.86
2019-02-05T13:23:05.292Z,78.64
2019-02-05T13:25:34.523Z,78.64
2019-02-05T13:28:03.257Z,78.59
2019-02-05T13:30:33.293Z,78.72
2019-02-05T13:33:02.217Z,79.00
2019-02-05T13:35:31.519Z,78.91
2019-02-05T13:38:00.759Z,79.21
2019-02-05T13:40:30.290Z,79.43
2019-02-05T13:43:00.289Z,79.34
2019-02-05T13:45:31.932Z,79.00
2019-02-05T13:48:00.519Z,79.20
2019-02-05T13:50:33.513Z,79.08
2019-02-05T13:53:01.810Z,79.17
2019-02-05T13:55:32.894Z,79.58
2019-02-05T13:58:01.704Z,79.79
2019-02-05T14:00:32.941Z,79.97
2019-02-05T14:03:01.429Z,79.73
2019-02-05T14:05:29.926Z,79.74
2019-02-05T14:07:58.562Z,80.00
2019-02-05T14:10:32.369Z,79.96
2019-02-05T14:13:00.894Z,80.01
2019-02-05T14:15:34.291Z,80.08
2019-02-05T14:18:03.218Z,80.18
2019-02-05T14:20:31.700Z,80.48
2019-02-05T14:23:00.348Z,80.45
2019-02-05T14:25:28.838Z,80.30
2019-02-05T14:27:57.300Z,80.34
2019-02-05T14:30:34.351Z,80.20
2019-02-05T14:33:03.533Z,80.29
2019-02-05T14:35:32.027Z,80.55
2019-02-05T14:38:00.927Z,80.56
2019-02-05T14:40:29.489Z,80.34
2019-02-05T14:42:58.082Z,80.54
2019-02-05T14:45:26.638Z,80.50
2019-02-05T14:47:55.095Z,80.66
2019-02-05T14:50:28.903Z,80.45
2019-02-05T14:52:57.610Z,80.58
2019-02-05T14:55:26.173Z,80.64
2019-02-05T14:57:54.810Z,80.77
2019-02-05T15:00:31.777Z,80.92
2019-02-05T15:03:02.186Z,80.91
2019-02-05T15:05:30.889Z,81.03
2019-02-05T15:07:59.343Z,81.33
2019-02-05T15:10:27.923Z,81.26
2019-02-05T15:12:56.560Z,81.14
2019-02-05T15:15:29.035Z,81.09
2019-02-05T15:17:58.250Z,81.17
2019-02-05T15:20:32.100Z,81.26
2019-02-05T15:23:00.923Z,81.19
2019-02-05T15:25:29.680Z,81.25
2019-02-05T15:27:58.923Z,81.26
2019-02-05T15:30:31.087Z,81.27
2019-02-05T15:33:06.933Z,81.44
2019-02-05T15:35:35.629Z,81.38
2019-02-05T15:38:04.358Z,81.49
2019-02-05T15:40:33.020Z,81.59
2019-02-05T15:43:01.884Z,81.63
2019-02-05T15:45:30.376Z,81.83
2019-02-05T15:47:58.920Z,81.72
2019-02-05T15:50:27.419Z,81.91
2019-02-05T15:52:55.873Z,81.70
2019-02-05T15:55:24.538Z,81.92
2019-02-05T15:57:53.004Z,81.88
2019-02-05T16:00:25.769Z,81.83
2019-02-05T16:02:54.305Z,82.17
2019-02-05T16:05:22.797Z,82.04
2019-02-05T16:07:51.264Z,82.22
2019-02-05T16:10:24.213Z,81.99
2019-02-05T16:12:52.679Z,82.05
2019-02-05T16:15:21.165Z,82.05
2019-02-05T16:17:49.695Z,81.98
2019-02-05T16:20:20.298Z,81.73
2019-02-05T16:22:50.195Z,82.09
2019-02-05T16:25:19.133Z,82.30
2019-02-05T16:27:47.607Z,82.14
2019-02-05T16:30:28.040Z,82.27
2019-02-05T16:32:56.504Z,82.34
2019-02-05T16:35:25.127Z,82.56
2019-02-05T16:37:54.742Z,82.29
2019-02-05T16:40:35.022Z,82.34
2019-02-05T16:43:03.704Z,82.50
2019-02-05T16:45:32.735Z,82.41
2019-02-05T16:48:01.432Z,82.44
2019-02-05T16:50:42.292Z,82.41
2019-02-05T16:53:11.232Z,82.43
2019-02-05T16:55:39.725Z,82.79
2019-02-05T16:58:08.195Z,82.55
2019-02-05T17:00:38.023Z,82.27
2019-02-05T17:03:07.322Z,82.44
2019-02-05T17:05:38.349Z,82.30
2019-02-05T17:08:07.291Z,82.54
2019-02-05T17:10:35.773Z,82.75
2019-02-05T17:13:05.292Z,82.95
2019-02-05T17:15:33.772Z,82.64
2019-02-05T17:18:04.146Z,82.72
2019-02-05T17:20:33.860Z,82.81
2019-02-05T17:23:02.540Z,83.10
2019-02-05T17:25:31.026Z,82.74
2019-02-05T17:28:01.657Z,82.48
2019-02-05T17:30:35.303Z,82.49
2019-02-05T17:33:04.375Z,82.60
2019-02-05T17:35:35.382Z,82.53
2019-02-05T17:38:03.371Z,82.54
2019-02-05T17:40:31.835Z,82.63
2019-02-05T17:43:00.327Z,82.49
2019-02-05T17:45:31.520Z,82.33
2019-02-05T17:48:02.282Z,82.48
2019-02-05T17:50:30.749Z,82.51
2019-02-05T17:52:59.522Z,82.26
2019-02-05T17:55:27.967Z,82.31
2019-02-05T17:57:56.509Z,82.30
2019-02-05T18:00:29.470Z,82.15
2019-02-05T18:02:58.091Z,82.62
2019-02-05T18:05:26.637Z,82.31
2019-02-05T18:07:55.683Z,82.37
2019-02-05T18:10:26.929Z,82.49
2019-02-05T18:12:55.425Z,82.68
2019-02-05T18:15:26.808Z,82.62
2019-02-05T18:17:55.525Z,82.63
2019-02-05T18:20:24.003Z,82.62
2019-02-05T18:22:52.868Z,82.68
2019-02-05T18:25:21.782Z,82.70
2019-02-05T18:27:57.848Z,82.91
2019-02-05T18:30:28.656Z,82.79
2019-02-05T18:33:04.983Z,82.98
2019-02-05T18:35:28.008Z,82.87
2019-02-05T18:37:56.965Z,82.95
2019-02-05T18:40:27.164Z,82.87
2019-02-05T18:42:55.742Z,82.75
2019-02-05T18:45:24.279Z,82.91
2019-02-05T18:47:52.841Z,82.76
2019-02-05T18:50:23.842Z,82.84
2019-02-05T18:52:52.344Z,82.57
2019-02-05T18:55:22.136Z,82.54
2019-02-05T18:57:50.636Z,82.53
2019-02-05T19:00:27.976Z,82.51
2019-02-05T19:02:56.527Z,82.54
2019-02-05T19:05:25.541Z,82.47
2019-02-05T19:07:54.277Z,82.61
2019-02-05T19:10:25.558Z,82.66
2019-02-05T19:12:54.217Z,82.47
2019-02-05T19:15:26.344Z,82.46
2019-02-05T19:17:54.871Z,82.48
2019-02-05T19:20:28.461Z,82.41
2019-02-05T19:22:56.938Z,82.12
2019-02-05T19:25:33.497Z,82.19
2019-02-05T19:28:01.987Z,82.15
2019-02-05T19:30:32.098Z,82.16
2019-02-05T19:33:01.040Z,82.15
2019-02-05T19:35:29.498Z,82.23
2019-02-05T19:37:57.999Z,81.92
2019-02-05T19:40:26.519Z,81.96
2019-02-05T19:42:55.016Z,81.95
2019-02-05T19:45:33.691Z,82.07
2019-02-05T19:48:03.823Z,81.91
2019-02-05T19:50:32.361Z,81.98
2019-02-05T19:53:00.845Z,81.85
2019-02-05T19:55:29.315Z,81.84
2019-02-05T19:57:58.210Z,81.95
2019-02-05T20:00:26.679Z,82.02
2019-02-05T20:02:55.646Z,81.82
2019-02-05T20:05:24.226Z,81.88
2019-02-05T20:07:54.425Z,81.91
2019-02-05T20:10:23.060Z,81.90
2019-02-05T20:12:51.560Z,81.71
2019-02-05T20:15:20.069Z,81.81
2019-02-05T20:17:48.592Z,81.80
2019-02-05T20:20:19.270Z,81.60
2019-02-05T20:22:48.268Z,81.67
2019-02-05T20:25:17.958Z,81.77
2019-02-05T20:27:46.502Z,81.86
2019-02-05T20:30:26.098Z,82.00
2019-02-05T20:32:54.606Z,82.11
2019-02-05T20:35:23.084Z,81.95
2019-02-05T20:37:52.118Z,81.91
2019-02-05T20:40:25.408Z,82.10
2019-02-05T20:42:54.188Z,81.99
2019-02-05T20:45:22.775Z,81.78
2019-02-05T20:47:51.257Z,81.77
2019-02-05T20:50:21.221Z,81.70
2019-02-05T20:52:49.882Z,81.85
2019-02-05T20:55:22.688Z,81.80
2019-02-05T20:57:52.121Z,81.83
2019-02-05T21:00:23.229Z,81.93
2019-02-05T21:02:51.874Z,81.90
2019-02-05T21:05:21.584Z,81.99
2019-02-05T21:07:50.397Z,81.87
2019-02-05T21:10:22.083Z,81.76
2019-02-05T21:12:50.721Z,81.64
2019-02-05T21:15:20.092Z,81.52
2019-02-05T21:17:48.652Z,81.44
2019-02-05T21:20:29.182Z,81.43
2019-02-05T21:22:53.323Z,81.50
2019-02-05T21:25:23.747Z,81.33
2019-02-05T21:27:52.226Z,81.33
2019-02-05T21:30:22.926Z,81.24
2019-02-05T21:32:52.022Z,81.17
2019-02-05T21:35:20.504Z,81.05
2019-02-05T21:37:48.972Z,81.10
2019-02-05T21:40:25.664Z,81.31
2019-02-05T21:42:54.307Z,81.37
2019-02-05T21:45:27.951Z,81.41
2019-02-05T21:47:56.429Z,81.66
2019-02-05T21:50:25.064Z,81.59
2019-02-05T21:52:53.598Z,81.57
2019-02-05T21:55:24.476Z,81.27
2019-02-05T21:57:53.009Z,81.43
2019-02-05T22:00:32.286Z,81.36
2019-02-05T22:03:00.845Z,81.31
2019-02-05T22:05:31.254Z,81.54
2019-02-05T22:08:00.384Z,81.20
2019-02-05T22:10:28.846Z,81.40
2019-02-05T22:12:57.481Z,81.28
2019-02-05T22:15:26.349Z,81.43
2019-02-05T22:17:55.204Z,81.34
2019-02-05T22:20:29.991Z,81.04
2019-02-05T22:22:58.523Z,81.11
2019-02-05T22:25:32.281Z,80.99
2019-02-05T22:28:01.735Z,81.23
2019-02-05T22:30:32.806Z,80.99
2019-02-05T22:33:01.558Z,81.08
2019-02-05T22:35:30.282Z,81.23
2019-02-05T22:37:58.831Z,81.16
2019-02-05T22:40:28.165Z,80.94
2019-02-05T22:42:57.076Z,80.94
2019-02-05T22:45:30.249Z,81.00
2019-02-05T22:47:58.720Z,81.21
2019-02-05T22:50:29.693Z,81.37
2019-02-05T22:52:58.211Z,80.97
2019-02-05T22:55:26.705Z,81.33
2019-02-05T22:57:55.320Z,81.20
2019-02-05T23:00:31.328Z,81.19
2019-02-05T23:02:59.796Z,81.10
2019-02-05T23:06:01.878Z,81.20
2019-02-05T23:08:30.585Z,80.97
2019-02-05T23:11:07.413Z,80.83
2019-02-05T23:13:36.225Z,80.88
2019-02-05T23:16:05.577Z,80.96
2019-02-05T23:18:34.134Z,80.81
2019-02-05T23:21:02.792Z,80.93
2019-02-05T23:23:31.259Z,80.89
2019-02-05T23:25:59.859Z,80.63
2019-02-05T23:28:28.326Z,80.49
2019-02-05T23:30:56.827Z,80.61
2019-02-05T23:33:25.298Z,80.14
2019-02-05T23:35:53.779Z,80.33
2019-02-05T23:38:29.658Z,80.57
2019-02-05T23:40:52.534Z,80.29
2019-02-05T23:43:20.997Z,80.46
2019-02-05T23:46:00.936Z,80.57
2019-02-05T23:48:20.337Z,80.42
2019-02-05T23:50:48.819Z,80.67
2019-02-05T23:53:17.768Z,80.45
2019-02-05T23:55:48.207Z,80.19
2019-02-05T23:58:17.270Z,80.33
